Dorking, United Kingdom
Current Conditions -  °F | °C
As of 3:50 AM on Wednesday 28 Jan 2015 (Local Time) from EGKK Reporting Station
Broken Clouds Broken Clouds  
Wind Chill: 38°   Ceiling: 1800
Heat Index: 45°   Visibility: 6mi
Dew Point: 41°   Wind: 14mph
Humidity: 87%   Direction: 230°SW
Pressure: 29.94"   Gusts: NA
Location:  51.23°N, 0.33°W
Report Text: EGKK 280350Z 23012KT 9999 BKN018 07/05 Q1014
Loading
Personal Weather Stations






























Interactive Weather Map New forecast layout! Learn more

10-Day Weather Forecast

Advertisements
Track Severe Weather on mobile